createdAt,value
2023-03-29T00:00:07.194Z,9.418274
2023-03-29T00:01:07.192Z,9.418283
2023-03-29T00:02:07.187Z,9.418291
2023-03-29T00:03:07.391Z,9.418307
2023-03-29T00:04:07.272Z,9.418341
2023-03-29T00:05:07.154Z,9.418399
2023-03-29T00:06:07.151Z,9.418301
2023-03-29T00:07:07.140Z,9.418355
2023-03-29T00:08:07.138Z,9.418322
2023-03-29T00:09:07.120Z,9.418307
2023-03-29T00:10:07.129Z,9.418306
2023-03-29T00:11:07.127Z,9.418321
2023-03-29T00:12:07.127Z,9.418363
2023-03-29T00:13:07.102Z,9.418357
2023-03-29T00:14:07.091Z,9.418426
2023-03-29T00:15:07.090Z,9.418382
2023-03-29T00:16:07.090Z,9.418405
2023-03-29T00:17:07.160Z,9.418338
2023-03-29T00:18:07.143Z,9.418282
2023-03-29T00:19:07.048Z,9.418279
2023-03-29T00:20:07.061Z,9.418269
2023-03-29T00:21:07.159Z,9.418284
2023-03-29T00:22:07.039Z,9.418295
2023-03-29T00:23:07.036Z,9.418303
2023-03-29T00:24:07.045Z,9.418321
2023-03-29T00:25:07.015Z,9.418294
2023-03-29T00:26:08.090Z,9.418274
2023-03-29T00:27:08.020Z,9.418266
2023-03-29T00:28:06.999Z,9.418274
2023-03-29T00:29:07.004Z,9.418247
2023-03-29T00:30:06.999Z,9.418258
2023-03-29T00:31:07.039Z,9.418272
2023-03-29T00:32:06.972Z,9.418275
2023-03-29T00:33:07.003Z,9.418340
2023-03-29T00:34:06.968Z,9.418364
2023-03-29T00:35:06.941Z,9.418355
2023-03-29T00:36:07.058Z,9.418344
2023-03-29T00:37:06.971Z,9.418346
2023-03-29T00:38:06.926Z,9.418334
2023-03-29T00:39:06.912Z,9.418309
2023-03-29T00:40:06.911Z,9.418361
2023-03-29T00:41:06.958Z,9.418332
2023-03-29T00:42:06.910Z,9.418298
2023-03-29T00:43:07.004Z,9.418270
2023-03-29T00:44:06.909Z,9.418252
2023-03-29T00:45:06.889Z,9.418293
2023-03-29T00:46:06.893Z,9.418318
2023-03-29T00:47:06.880Z,9.418306
2023-03-29T00:48:06.902Z,9.418366
2023-03-29T00:49:06.861Z,9.418278
2023-03-29T00:50:06.870Z,9.418231
2023-03-29T00:51:09.794Z,9.418194
2023-03-29T00:52:06.858Z,9.418270
2023-03-29T00:53:06.821Z,9.418248
2023-03-29T00:54:06.816Z,9.418282
2023-03-29T00:55:06.852Z,9.418238
2023-03-29T00:56:06.808Z,9.418252
2023-03-29T00:57:07.051Z,9.418234
2023-03-29T00:58:06.837Z,9.418175
2023-03-29T00:59:06.792Z,9.418276
2023-03-29T01:00:06.820Z,9.418247
2023-03-29T01:01:06.779Z,9.418297
2023-03-29T01:02:06.867Z,9.418328
2023-03-29T01:03:06.837Z,9.418316
2023-03-29T01:04:06.798Z,9.418316
2023-03-29T01:05:06.751Z,9.418265
2023-03-29T01:06:06.741Z,9.418163
2023-03-29T01:07:06.865Z,9.418139
2023-03-29T01:08:06.739Z,9.418199
2023-03-29T01:09:06.731Z,9.418327
2023-03-29T01:10:06.715Z,9.418224
2023-03-29T01:11:06.715Z,9.418328
2023-03-29T01:12:06.732Z,9.418370
2023-03-29T01:13:06.714Z,9.418365
2023-03-29T01:14:06.690Z,9.418243
2023-03-29T01:15:06.684Z,9.418178
2023-03-29T01:16:06.700Z,9.418184
2023-03-29T01:17:06.685Z,9.418226
2023-03-29T01:18:06.732Z,9.418309
2023-03-29T01:19:06.658Z,9.418311
2023-03-29T01:20:07.662Z,9.418312
2023-03-29T01:21:06.667Z,9.418252
2023-03-29T01:22:06.638Z,9.418157
2023-03-29T01:23:06.670Z,9.418190
2023-03-29T01:24:06.705Z,9.418260
2023-03-29T01:25:06.624Z,9.418400
2023-03-29T01:26:06.615Z,9.418283
2023-03-29T01:27:06.608Z,9.418162
2023-03-29T01:28:06.613Z,9.418280
2023-03-29T01:29:06.660Z,9.418056
2023-03-29T01:30:06.596Z,9.418227
2023-03-29T01:31:06.586Z,9.418248
2023-03-29T01:32:06.627Z,9.418115
2023-03-29T01:33:06.638Z,9.418242
2023-03-29T01:34:06.577Z,9.418273
2023-03-29T01:35:06.569Z,9.418405
2023-03-29T01:36:06.572Z,9.418386
2023-03-29T01:37:06.547Z,9.418315
2023-03-29T01:38:06.548Z,9.418359
2023-03-29T01:39:06.531Z,9.418399
2023-03-29T01:40:06.523Z,9.418445
2023-03-29T01:41:06.512Z,9.418427
2023-03-29T01:42:06.646Z,9.418448
2023-03-29T01:43:06.535Z,9.418427
2023-03-29T01:44:06.511Z,9.418418
2023-03-29T01:45:06.503Z,9.418387
2023-03-29T01:46:06.510Z,9.418532
2023-03-29T01:47:06.475Z,9.418500
2023-03-29T01:48:06.528Z,9.418470
2023-03-29T01:49:06.486Z,9.418335
2023-03-29T01:50:06.468Z,9.418470
2023-03-29T01:51:06.459Z,9.418180
2023-03-29T01:52:06.440Z,9.418159
2023-03-29T01:53:06.452Z,9.418082
2023-03-29T01:54:06.441Z,9.418084
2023-03-29T01:55:06.430Z,9.418280
2023-03-29T01:56:06.448Z,9.418284
2023-03-29T01:57:06.462Z,9.418216
2023-03-29T01:58:06.431Z,9.418317
2023-03-29T01:59:06.429Z,9.418334
2023-03-29T02:00:06.393Z,9.418358
2023-03-29T02:01:06.401Z,9.418360
2023-03-29T02:02:06.384Z,9.418367
2023-03-29T02:03:06.474Z,9.418305
2023-03-29T02:04:06.391Z,9.418348
2023-03-29T02:05:06.368Z,9.418338
2023-03-29T02:06:07.366Z,9.418343
2023-03-29T02:07:06.366Z,9.418347
2023-03-29T02:08:06.346Z,9.418339
2023-03-29T02:09:06.365Z,9.418382
2023-03-29T02:10:06.331Z,9.418386
2023-03-29T02:11:06.318Z,9.418348
2023-03-29T02:12:06.310Z,9.418324
2023-03-29T02:13:07.314Z,9.418371
2023-03-29T02:14:06.321Z,9.418276
2023-03-29T02:15:06.310Z,9.418277
2023-03-29T02:16:06.320Z,9.418323
2023-03-29T02:17:06.295Z,9.418355
2023-03-29T02:18:06.384Z,9.418371
2023-03-29T02:19:06.274Z,9.418361
2023-03-29T02:20:06.337Z,9.418312
2023-03-29T02:21:06.261Z,9.418335
2023-03-29T02:22:06.251Z,9.418229
2023-03-29T02:23:06.247Z,9.418254
2023-03-29T02:24:06.236Z,9.418225
2023-03-29T02:25:06.260Z,9.418260
2023-03-29T02:26:06.222Z,9.418262
2023-03-29T02:27:06.196Z,9.418308
2023-03-29T02:28:07.214Z,9.418240
2023-03-29T02:29:06.209Z,9.418266
2023-03-29T02:30:06.213Z,9.418252
2023-03-29T02:31:06.242Z,9.418263
2023-03-29T02:32:06.185Z,9.418255
2023-03-29T02:33:06.265Z,9.418252
2023-03-29T02:34:06.177Z,9.418238
2023-03-29T02:35:06.171Z,9.418285
2023-03-29T02:36:06.193Z,9.418273
2023-03-29T02:37:06.149Z,9.418275
2023-03-29T02:38:06.150Z,9.418207
2023-03-29T02:39:06.304Z,9.418212
2023-03-29T02:40:06.177Z,9.418277
2023-03-29T02:41:06.126Z,9.418307
2023-03-29T02:42:06.122Z,9.418229
2023-03-29T02:43:06.119Z,9.418294
2023-03-29T02:44:06.134Z,9.418305
2023-03-29T02:45:06.098Z,9.418246
2023-03-29T02:46:06.138Z,9.418255
2023-03-29T02:47:06.088Z,9.418268
2023-03-29T02:48:06.142Z,9.418276
2023-03-29T02:49:06.066Z,9.418263
2023-03-29T02:50:06.074Z,9.418226
2023-03-29T02:51:06.071Z,9.418271
2023-03-29T02:52:06.052Z,9.418288
2023-03-29T02:53:06.055Z,9.418297
2023-03-29T02:54:06.046Z,9.418237
2023-03-29T02:55:06.043Z,9.418317
2023-03-29T02:56:06.023Z,9.418214
2023-03-29T02:57:06.076Z,9.418222
2023-03-29T02:58:06.018Z,9.418253
2023-03-29T02:59:07.006Z,9.418308
2023-03-29T03:00:06.020Z,9.418287
2023-03-29T03:01:05.991Z,9.418300
2023-03-29T03:02:06.011Z,9.418260
2023-03-29T03:03:06.074Z,9.418249
2023-03-29T03:04:06.009Z,9.418332
2023-03-29T03:05:05.965Z,9.418374
2023-03-29T03:06:06.966Z,9.418635
2023-03-29T03:07:05.977Z,9.418492
2023-03-29T03:08:05.959Z,9.418447
2023-03-29T03:09:05.948Z,9.418309
2023-03-29T03:10:05.974Z,9.418447
2023-03-29T03:11:05.979Z,9.418236
2023-03-29T03:12:05.944Z,9.418166
2023-03-29T03:13:05.908Z,9.418331
2023-03-29T03:14:05.910Z,9.418412
2023-03-29T03:15:05.907Z,9.418243
2023-03-29T03:16:05.916Z,9.418008
2023-03-29T03:17:05.882Z,9.418283
2023-03-29T03:18:05.977Z,9.418439
2023-03-29T03:19:05.896Z,9.418447
2023-03-29T03:20:05.867Z,9.418349
2023-03-29T03:21:05.857Z,9.418125
2023-03-29T03:22:05.889Z,9.418334
2023-03-29T03:23:05.845Z,9.418478
2023-03-29T03:24:05.863Z,9.418296
2023-03-29T03:25:05.829Z,9.418184
2023-03-29T03:26:05.814Z,9.418343
2023-03-29T03:27:05.810Z,9.418437
2023-03-29T03:28:05.808Z,9.418277
2023-03-29T03:29:06.021Z,9.418324
2023-03-29T03:30:05.809Z,9.418586
2023-03-29T03:31:05.809Z,9.418472
2023-03-29T03:32:05.861Z,9.418431
2023-03-29T03:33:05.828Z,9.418397
2023-03-29T03:34:05.808Z,9.418407
2023-03-29T03:35:05.769Z,9.418573
2023-03-29T03:36:05.815Z,9.418654
2023-03-29T03:37:05.786Z,9.418646
2023-03-29T03:38:05.744Z,9.418626
2023-03-29T03:39:05.771Z,9.418588
2023-03-29T03:40:05.743Z,9.418487
2023-03-29T03:41:06.087Z,9.418574
2023-03-29T03:42:08.269Z,9.418543
2023-03-29T03:43:06.720Z,9.418463
2023-03-29T03:44:05.717Z,9.418367
2023-03-29T03:45:05.705Z,9.418365
2023-03-29T03:46:05.788Z,9.418342
2023-03-29T03:47:05.721Z,9.418335
2023-03-29T03:48:05.735Z,9.418354
2023-03-29T03:49:05.715Z,9.418077
2023-03-29T03:50:05.774Z,9.418245
2023-03-29T03:51:05.681Z,9.418392
2023-03-29T03:52:05.664Z,9.418387
2023-03-29T03:53:05.666Z,9.418326
2023-03-29T03:54:05.651Z,9.418289
2023-03-29T03:55:05.658Z,9.418256
2023-03-29T03:56:05.651Z,9.418316
2023-03-29T03:57:05.668Z,9.418316
2023-03-29T03:58:05.660Z,9.418253
2023-03-29T03:59:05.652Z,9.418267
2023-03-29T04:00:05.629Z,9.418283
2023-03-29T04:01:05.625Z,9.418272
2023-03-29T04:02:05.667Z,9.418221
2023-03-29T04:03:05.761Z,9.418291
2023-03-29T04:04:05.593Z,9.418337
2023-03-29T04:05:05.575Z,9.418280
2023-03-29T04:06:05.631Z,9.418257
2023-03-29T04:07:05.562Z,9.418292
2023-03-29T04:08:05.595Z,9.418298
2023-03-29T04:09:05.549Z,9.418264
2023-03-29T04:10:05.542Z,9.418280
2023-03-29T04:11:05.542Z,9.418241
2023-03-29T04:12:05.530Z,9.418360
2023-03-29T04:13:05.527Z,9.418362
2023-03-29T04:14:05.512Z,9.418365
2023-03-29T04:15:05.503Z,9.418355
2023-03-29T04:16:05.559Z,9.418263
2023-03-29T04:17:05.489Z,9.418188
2023-03-29T04:18:05.575Z,9.418233
2023-03-29T04:19:05.513Z,9.418293
2023-03-29T04:20:05.457Z,9.418269
2023-03-29T04:21:05.480Z,9.418283
2023-03-29T04:22:05.498Z,9.418244
2023-03-29T04:23:05.464Z,9.418226
2023-03-29T04:24:05.449Z,9.418261
2023-03-29T04:25:05.453Z,9.418286
2023-03-29T04:26:05.471Z,9.418268
2023-03-29T04:27:05.435Z,9.418277
2023-03-29T04:28:05.426Z,9.418339
2023-03-29T04:29:05.436Z,9.418329
2023-03-29T04:30:05.411Z,9.418268
2023-03-29T04:31:05.674Z,9.418370
2023-03-29T04:32:05.436Z,9.418317
2023-03-29T04:33:05.486Z,9.418270
2023-03-29T04:34:05.421Z,9.418271
2023-03-29T04:35:05.452Z,9.418269
2023-03-29T04:36:05.392Z,9.418215
2023-03-29T04:37:05.424Z,9.418251
2023-03-29T04:38:05.379Z,9.418224
2023-03-29T04:39:05.351Z,9.418172
2023-03-29T04:40:05.698Z,9.418367
2023-03-29T04:41:05.339Z,9.418298
2023-03-29T04:42:05.377Z,9.418162
2023-03-29T04:43:05.366Z,9.418122
2023-03-29T04:44:05.343Z,9.418182
2023-03-29T04:45:05.454Z,9.418303
2023-03-29T04:46:05.372Z,9.418288
2023-03-29T04:47:05.310Z,9.418235
2023-03-29T04:48:05.344Z,9.418163
2023-03-29T04:49:05.292Z,9.418173
2023-03-29T04:50:05.292Z,9.418215
2023-03-29T04:51:05.274Z,9.418245
2023-03-29T04:52:05.281Z,9.418258
2023-03-29T04:53:05.283Z,9.418266
2023-03-29T04:54:05.263Z,9.418170
2023-03-29T04:55:05.288Z,9.418211
2023-03-29T04:56:05.270Z,9.418212
2023-03-29T04:57:05.307Z,9.418257
2023-03-29T04:58:05.231Z,9.418221
2023-03-29T04:59:05.257Z,9.418267
2023-03-29T05:00:05.229Z,9.418117
2023-03-29T05:01:05.257Z,9.418198
2023-03-29T05:02:05.260Z,9.418244
2023-03-29T05:03:05.221Z,9.418224
2023-03-29T05:04:05.314Z,9.418274
2023-03-29T05:05:05.187Z,9.418319
2023-03-29T05:06:05.184Z,9.418338
2023-03-29T05:07:05.178Z,9.418260
2023-03-29T05:08:05.167Z,9.418260
2023-03-29T05:09:05.163Z,9.418340
2023-03-29T05:10:05.170Z,9.418328
2023-03-29T05:11:05.163Z,9.418277
2023-03-29T05:12:05.156Z,9.418354
2023-03-29T05:13:05.135Z,9.418429
2023-03-29T05:14:05.130Z,9.418280
2023-03-29T05:15:05.128Z,9.418233
2023-03-29T05:16:05.198Z,9.418326
2023-03-29T05:17:05.168Z,9.418327
2023-03-29T05:18:05.169Z,9.418299
2023-03-29T05:19:05.098Z,9.418267
2023-03-29T05:20:05.113Z,9.418258
2023-03-29T05:21:05.253Z,9.418368
2023-03-29T05:22:05.107Z,9.418297
2023-03-29T05:23:05.135Z,9.418339
2023-03-29T05:24:05.086Z,9.418302
2023-03-29T05:25:05.053Z,9.418344
2023-03-29T05:26:05.050Z,9.418371
2023-03-29T05:27:05.123Z,9.418483
2023-03-29T05:28:05.037Z,9.418489
2023-03-29T05:29:05.100Z,9.418358
2023-03-29T05:30:05.052Z,9.418411
2023-03-29T05:31:05.263Z,9.418366
2023-03-29T05:32:05.081Z,9.418409
2023-03-29T05:33:05.024Z,9.418324
2023-03-29T05:34:04.999Z,9.418235
2023-03-29T05:35:05.053Z,9.418429
2023-03-29T05:36:05.045Z,9.418335
2023-03-29T05:37:04.975Z,9.418226
2023-03-29T05:38:05.005Z,9.418375
2023-03-29T05:39:04.960Z,9.418477
2023-03-29T05:40:06.082Z,9.418398
2023-03-29T05:41:04.952Z,9.418398
2023-03-29T05:42:04.986Z,9.418372
2023-03-29T05:43:04.951Z,9.418298
2023-03-29T05:44:04.931Z,9.418357
2023-03-29T05:45:04.937Z,9.418448
2023-03-29T05:46:04.941Z,9.418449
2023-03-29T05:47:04.919Z,9.418567
2023-03-29T05:48:04.950Z,9.418490
2023-03-29T05:49:04.914Z,9.418400
2023-03-29T05:50:04.930Z,9.418466
2023-03-29T05:51:05.091Z,9.418285
2023-03-29T05:52:04.877Z,9.418345
2023-03-29T05:53:04.877Z,9.418325
2023-03-29T05:54:04.877Z,9.418357
2023-03-29T05:55:04.852Z,9.418339
2023-03-29T05:56:04.846Z,9.418327
2023-03-29T05:57:04.869Z,9.418319
2023-03-29T05:58:04.837Z,9.418344
2023-03-29T05:59:04.858Z,9.418315
2023-03-29T06:00:04.820Z,9.418302
2023-03-29T06:01:04.916Z,9.418300
2023-03-29T06:02:04.986Z,9.418347
2023-03-29T06:03:14.098Z,9.418331
2023-03-29T06:04:06.954Z,9.418325
2023-03-29T06:05:04.821Z,9.418305
2023-03-29T06:06:04.812Z,9.418283
2023-03-29T06:07:04.776Z,9.418331
2023-03-29T06:08:04.771Z,9.418340
2023-03-29T06:09:04.768Z,9.418279
2023-03-29T06:10:04.790Z,9.418270
2023-03-29T06:11:05.396Z,9.418266
2023-03-29T06:12:05.750Z,9.418242
2023-03-29T06:13:04.741Z,9.418250
2023-03-29T06:14:04.750Z,9.418330
2023-03-29T06:15:04.753Z,9.418361
2023-03-29T06:16:04.734Z,9.418365
2023-03-29T06:17:04.756Z,9.418389
2023-03-29T06:18:04.785Z,9.418344
2023-03-29T06:19:04.704Z,9.418316
2023-03-29T06:20:04.715Z,9.418305
2023-03-29T06:21:05.020Z,9.418277
2023-03-29T06:22:04.683Z,9.418307
2023-03-29T06:23:05.686Z,9.418312
2023-03-29T06:24:04.674Z,9.418316
2023-03-29T06:25:04.668Z,9.418300
2023-03-29T06:26:04.676Z,9.418331
2023-03-29T06:27:04.651Z,9.418258
2023-03-29T06:28:04.640Z,9.418315
2023-03-29T06:29:04.642Z,9.418352
2023-03-29T06:30:04.635Z,9.418318
2023-03-29T06:31:04.799Z,9.418406
2023-03-29T06:32:04.636Z,9.418358
2023-03-29T06:33:04.678Z,9.418336
2023-03-29T06:34:04.648Z,9.418312
2023-03-29T06:35:04.643Z,9.418223
2023-03-29T06:36:04.649Z,9.418219
2023-03-29T06:37:04.617Z,9.418284
2023-03-29T06:38:04.622Z,9.418253
2023-03-29T06:39:04.623Z,9.418304
2023-03-29T06:40:04.605Z,9.418234
2023-03-29T06:41:04.687Z,9.418273
2023-03-29T06:42:12.990Z,9.418262
2023-03-29T06:43:06.544Z,9.418271
2023-03-29T06:44:04.575Z,9.418249
2023-03-29T06:45:04.598Z,9.418245
2023-03-29T06:46:04.574Z,9.418244
2023-03-29T06:47:04.536Z,9.418256
2023-03-29T06:48:04.648Z,9.418256
2023-03-29T06:49:04.518Z,9.418269
2023-03-29T06:50:04.505Z,9.418361
2023-03-29T06:51:04.689Z,9.418309
2023-03-29T06:52:04.502Z,9.418174
2023-03-29T06:53:04.532Z,9.418202
2023-03-29T06:54:04.483Z,9.418235
2023-03-29T06:55:04.476Z,9.418296
2023-03-29T06:56:04.479Z,9.418243
2023-03-29T06:57:04.500Z,9.418175
2023-03-29T06:58:04.488Z,9.418158
2023-03-29T06:59:04.643Z,9.418180
2023-03-29T07:00:04.436Z,9.418228
2023-03-29T07:01:04.862Z,9.418332
2023-03-29T07:02:04.488Z,9.418315
2023-03-29T07:03:04.469Z,9.418351
2023-03-29T07:04:04.493Z,9.418251
2023-03-29T07:05:04.416Z,9.418222
2023-03-29T07:06:04.463Z,9.418247
2023-03-29T07:07:04.399Z,9.418318
2023-03-29T07:08:04.403Z,9.418309
2023-03-29T07:09:04.398Z,9.418342
2023-03-29T07:10:04.405Z,9.418386
2023-03-29T07:11:05.534Z,9.418366
2023-03-29T07:12:04.361Z,9.418294
2023-03-29T07:13:04.468Z,9.418365
2023-03-29T07:14:04.381Z,9.418380
2023-03-29T07:15:04.341Z,9.418297
2023-03-29T07:16:04.373Z,9.418346
2023-03-29T07:17:04.399Z,9.418409
2023-03-29T07:18:04.374Z,9.418364
2023-03-29T07:19:04.331Z,9.418255
2023-03-29T07:20:04.332Z,9.418106
2023-03-29T07:21:04.606Z,9.418110
2023-03-29T07:22:04.310Z,9.418348
2023-03-29T07:23:04.294Z,9.418208
2023-03-29T07:24:04.321Z,9.418272
2023-03-29T07:25:04.300Z,9.418256
2023-03-29T07:26:04.276Z,9.418342
2023-03-29T07:27:04.929Z,9.418238
2023-03-29T07:28:05.267Z,9.418240
2023-03-29T07:29:04.317Z,9.418203
2023-03-29T07:30:04.293Z,9.418219
2023-03-29T07:31:04.422Z,9.418240
2023-03-29T07:32:04.234Z,9.418218
2023-03-29T07:33:04.295Z,9.418118
2023-03-29T07:34:04.227Z,9.418156
2023-03-29T07:35:04.504Z,9.418143
2023-03-29T07:36:04.302Z,9.418138
2023-03-29T07:37:04.205Z,9.418271
2023-03-29T07:38:04.235Z,9.418259
2023-03-29T07:39:04.213Z,9.418242
2023-03-29T07:40:04.210Z,9.418225
2023-03-29T07:41:04.445Z,9.418208
2023-03-29T07:42:04.170Z,9.418171
2023-03-29T07:43:04.168Z,9.418228
2023-03-29T07:44:04.495Z,9.418225
2023-03-29T07:45:04.182Z,9.418217
2023-03-29T07:46:04.217Z,9.418269
2023-03-29T07:47:04.134Z,9.418325
2023-03-29T07:48:04.208Z,9.418302
2023-03-29T07:49:04.130Z,9.418256
2023-03-29T07:50:04.111Z,9.418160
2023-03-29T07:51:04.289Z,9.418090
2023-03-29T07:52:04.116Z,9.418125
2023-03-29T07:53:04.113Z,9.418143
2023-03-29T07:54:04.102Z,9.418180
2023-03-29T07:55:04.096Z,9.418265
2023-03-29T07:56:04.105Z,9.418109
2023-03-29T07:57:04.196Z,9.418134
2023-03-29T07:58:04.079Z,9.418255
2023-03-29T07:59:04.076Z,9.418269
2023-03-29T08:00:04.066Z,9.418306
2023-03-29T08:01:04.199Z,9.418300
2023-03-29T08:02:04.070Z,9.418303
2023-03-29T08:03:04.224Z,9.418292
2023-03-29T08:04:04.154Z,9.418267
2023-03-29T08:05:04.049Z,9.418297
2023-03-29T08:06:04.023Z,9.418378
2023-03-29T08:07:04.017Z,9.418388
2023-03-29T08:08:04.011Z,9.418324
2023-03-29T08:09:04.009Z,9.418279
2023-03-29T08:10:03.988Z,9.418285
2023-03-29T08:11:04.135Z,9.418225
2023-03-29T08:12:03.975Z,9.418208
2023-03-29T08:13:03.978Z,9.418201
2023-03-29T08:14:03.969Z,9.418185
2023-03-29T08:15:03.960Z,9.418229
2023-03-29T08:16:03.943Z,9.418205
2023-03-29T08:17:05.280Z,9.418241
2023-03-29T08:18:03.958Z,9.418247
2023-03-29T08:19:03.941Z,9.418237
2023-03-29T08:20:03.931Z,9.418237
2023-03-29T08:21:04.186Z,9.418198
2023-03-29T08:22:03.936Z,9.418162
2023-03-29T08:23:03.921Z,9.418180
2023-03-29T08:24:03.905Z,9.418201
2023-03-29T08:25:03.911Z,9.418274
2023-03-29T08:26:03.886Z,9.418259
2023-03-29T08:27:03.901Z,9.418333
2023-03-29T08:28:03.875Z,9.418251
2023-03-29T08:29:03.862Z,9.418252
2023-03-29T08:30:03.861Z,9.418236
2023-03-29T08:31:04.210Z,9.418207
2023-03-29T08:32:03.841Z,9.418242
2023-03-29T08:33:03.914Z,9.418324
2023-03-29T08:34:03.846Z,9.418302
2023-03-29T08:35:03.860Z,9.418373
2023-03-29T08:36:03.877Z,9.418162
2023-03-29T08:37:03.821Z,9.418197
2023-03-29T08:38:03.805Z,9.418280
2023-03-29T08:39:03.800Z,9.418307
2023-03-29T08:40:03.800Z,9.418243
2023-03-29T08:41:03.923Z,9.418247
2023-03-29T08:42:03.770Z,9.418146
2023-03-29T08:43:03.778Z,9.418196
2023-03-29T08:44:03.751Z,9.418159
2023-03-29T08:45:03.842Z,9.418191
2023-03-29T08:46:03.853Z,9.418167
2023-03-29T08:47:03.775Z,9.418199
2023-03-29T08:48:03.809Z,9.418219
2023-03-29T08:49:03.748Z,9.418236
2023-03-29T08:50:03.713Z,9.418260
2023-03-29T08:51:03.863Z,9.418242
2023-03-29T08:52:03.707Z,9.418296
2023-03-29T08:53:03.750Z,9.418320
2023-03-29T08:54:03.697Z,9.418315
2023-03-29T08:55:03.682Z,9.418302
2023-03-29T08:56:03.717Z,9.418243
2023-03-29T08:57:03.730Z,9.418218
2023-03-29T08:58:03.689Z,9.418318
2023-03-29T08:59:03.661Z,9.418297
2023-03-29T09:00:03.652Z,9.418242
2023-03-29T09:01:03.870Z,9.418275
2023-03-29T09:02:03.673Z,9.418264
2023-03-29T09:03:03.681Z,9.418254
2023-03-29T09:04:03.804Z,9.418291
2023-03-29T09:05:03.632Z,9.418329
2023-03-29T09:06:03.637Z,9.418280
2023-03-29T09:07:03.606Z,9.418210
2023-03-29T09:08:03.596Z,9.418229
2023-03-29T09:09:03.577Z,9.418200
2023-03-29T09:10:03.598Z,9.418218
2023-03-29T09:11:03.781Z,9.418195
2023-03-29T09:12:03.622Z,9.418220
2023-03-29T09:13:03.575Z,9.418227
2023-03-29T09:14:03.541Z,9.418252
2023-03-29T09:15:03.536Z,9.418260
2023-03-29T09:16:03.574Z,9.418295
2023-03-29T09:17:03.570Z,9.418389
2023-03-29T09:18:03.663Z,9.418357
2023-03-29T09:19:03.533Z,9.418329
2023-03-29T09:20:03.498Z,9.418312
2023-03-29T09:21:03.721Z,9.418299
2023-03-29T09:22:03.524Z,9.418302
2023-03-29T09:23:03.498Z,9.418283
2023-03-29T09:24:03.487Z,9.418304
2023-03-29T09:25:03.504Z,9.418232
2023-03-29T09:26:03.473Z,9.418310
2023-03-29T09:27:03.481Z,9.418280
2023-03-29T09:28:03.442Z,9.418264
2023-03-29T09:29:03.435Z,9.418260
2023-03-29T09:30:03.440Z,9.418339
2023-03-29T09:31:03.700Z,9.418355
2023-03-29T09:32:03.509Z,9.418277
2023-03-29T09:33:03.455Z,9.418234
2023-03-29T09:34:03.467Z,9.418262
2023-03-29T09:35:03.459Z,9.418263
2023-03-29T09:36:03.521Z,9.418258
2023-03-29T09:37:03.398Z,9.418356
2023-03-29T09:38:03.387Z,9.418434
2023-03-29T09:39:03.422Z,9.418352
2023-03-29T09:40:05.093Z,9.418287
2023-03-29T09:41:04.517Z,9.418287
2023-03-29T09:42:03.363Z,9.418285
2023-03-29T09:43:03.358Z,9.418356
2023-03-29T09:44:03.367Z,9.418373
2023-03-29T09:45:03.395Z,9.418359
2023-03-29T09:46:03.444Z,9.418273
2023-03-29T09:47:03.346Z,9.418422
2023-03-29T09:48:03.358Z,9.418318
2023-03-29T09:49:03.346Z,9.418237
2023-03-29T09:50:03.316Z,9.418261
2023-03-29T09:51:03.586Z,9.418489
2023-03-29T09:52:03.290Z,9.418266
2023-03-29T09:53:03.303Z,9.418219
2023-03-29T09:54:03.286Z,9.418303
2023-03-29T09:55:03.273Z,9.418315
2023-03-29T09:56:03.315Z,9.418405
2023-03-29T09:57:03.274Z,9.418477
2023-03-29T09:58:03.279Z,9.418423
2023-03-29T09:59:03.283Z,9.418406
2023-03-29T10:00:03.242Z,9.418290
2023-03-29T10:01:03.509Z,9.418244
2023-03-29T10:02:03.243Z,9.418195
2023-03-29T10:03:03.329Z,9.418262
2023-03-29T10:04:03.311Z,9.418222
2023-03-29T10:05:03.210Z,9.418274
2023-03-29T10:06:03.209Z,9.418321
2023-03-29T10:07:03.260Z,9.418259
2023-03-29T10:08:03.204Z,9.418234
2023-03-29T10:09:04.189Z,9.418325
2023-03-29T10:10:03.193Z,9.418306
2023-03-29T10:11:03.442Z,9.418133
2023-03-29T10:12:03.184Z,9.418198
2023-03-29T10:13:03.159Z,9.418282
2023-03-29T10:14:03.162Z,9.418263
2023-03-29T10:15:03.163Z,9.418437
2023-03-29T10:16:03.197Z,9.418417
2023-03-29T10:17:03.162Z,9.418375
2023-03-29T10:18:03.294Z,9.418308
2023-03-29T10:19:03.126Z,9.418281
2023-03-29T10:20:04.354Z,9.418300
2023-03-29T10:21:04.325Z,9.418489
2023-03-29T10:22:04.125Z,9.418494
2023-03-29T10:23:03.102Z,9.418239
2023-03-29T10:24:03.087Z,9.418359
2023-03-29T10:25:03.086Z,9.418452
2023-03-29T10:26:03.067Z,9.418345
2023-03-29T10:27:03.160Z,9.418243
2023-03-29T10:28:03.060Z,9.418266
2023-03-29T10:29:03.053Z,9.418278
2023-03-29T10:30:03.055Z,9.418354
2023-03-29T10:31:03.276Z,9.418305
2023-03-29T10:32:03.076Z,9.418276
2023-03-29T10:33:03.146Z,9.418270
2023-03-29T10:34:03.019Z,9.418211
2023-03-29T10:35:03.011Z,9.418166
2023-03-29T10:36:03.064Z,9.418251
2023-03-29T10:37:03.000Z,9.418281
2023-03-29T10:38:03.071Z,9.418283
2023-03-29T10:39:05.702Z,9.418220
2023-03-29T10:40:03.988Z,9.418171
2023-03-29T10:41:03.125Z,9.418303
2023-03-29T10:42:02.979Z,9.418209
2023-03-29T10:43:03.186Z,9.418276
2023-03-29T10:44:02.958Z,9.418190
2023-03-29T10:45:02.962Z,9.418262
2023-03-29T10:46:03.008Z,9.418239
2023-03-29T10:47:02.944Z,9.418257
2023-03-29T10:48:02.970Z,9.418334
2023-03-29T10:49:02.964Z,9.418207
2023-03-29T10:50:02.947Z,9.418220
2023-03-29T10:51:03.191Z,9.418326
2023-03-29T10:52:02.945Z,9.418271
2023-03-29T10:53:02.900Z,9.418297
2023-03-29T10:54:02.900Z,9.418259
2023-03-29T10:55:02.881Z,9.418255
2023-03-29T10:56:02.908Z,9.418237
2023-03-29T10:57:03.508Z,9.418227
2023-03-29T10:58:02.889Z,9.418338
2023-03-29T10:59:02.889Z,9.418267
2023-03-29T11:00:02.865Z,9.418239
2023-03-29T11:01:03.194Z,9.418331
2023-03-29T11:02:02.947Z,9.418298
2023-03-29T11:03:02.964Z,9.418241
2023-03-29T11:04:02.919Z,9.418374
2023-03-29T11:05:02.832Z,9.418388
2023-03-29T11:06:02.826Z,9.418352
2023-03-29T11:07:02.813Z,9.418287
2023-03-29T11:08:02.809Z,9.418337
2023-03-29T11:09:02.805Z,9.418226
2023-03-29T11:10:02.800Z,9.418229
2023-03-29T11:11:02.912Z,9.418409
2023-03-29T11:12:14.979Z,9.418433
2023-03-29T11:13:04.793Z,9.418368
2023-03-29T11:14:02.769Z,9.418236
2023-03-29T11:15:02.755Z,9.418343
2023-03-29T11:16:02.853Z,9.418225
2023-03-29T11:17:02.740Z,9.418367
2023-03-29T11:18:02.767Z,9.418386
2023-03-29T11:19:02.740Z,9.418269
2023-03-29T11:20:05.082Z,9.418307
2023-03-29T11:21:06.821Z,9.418405
2023-03-29T11:22:03.730Z,9.418287
2023-03-29T11:23:02.716Z,9.418405
2023-03-29T11:24:02.712Z,9.418333
2023-03-29T11:25:02.961Z,9.418403
2023-03-29T11:26:02.719Z,9.418452
2023-03-29T11:27:02.688Z,9.418441
2023-03-29T11:28:02.682Z,9.418503
2023-03-29T11:29:02.677Z,9.418566
2023-03-29T11:30:02.701Z,9.418444
2023-03-29T11:31:02.986Z,9.418412
2023-03-29T11:32:02.716Z,9.418326
2023-03-29T11:33:02.742Z,9.418421
2023-03-29T11:34:02.672Z,9.418472
2023-03-29T11:35:02.664Z,9.418503
2023-03-29T11:36:02.643Z,9.418499
2023-03-29T11:37:02.632Z,9.418441
2023-03-29T11:38:02.621Z,9.418504
2023-03-29T11:39:02.613Z,9.418426
2023-03-29T11:40:02.647Z,9.418381
2023-03-29T11:41:02.857Z,9.418435
2023-03-29T11:42:03.602Z,9.418333
2023-03-29T11:43:02.587Z,9.418427
2023-03-29T11:44:02.580Z,9.418633